• Join FlightAware (Why Join?)
  • Login
  • US Flag 
12:01PM EDT


 

Airport Tracker/Info


-or-


 

Live Flight TrackerFlight Track Log ✈ EJA831 ✈ 22-Jul-2013 ✈ KDAL - KASE

Flight Track Log - Related Links

Times and Time Zones

All times are in EDT time to prevent confusion due to time zone crossing. See the EJA831 flight status page for this flight to view local times or setup timezone preferences in your user account.

Time Position Orientation Groundspeed Altitude Reporting Facility
EDT Latitude Longitude Course Direction KTS MPH feet Rate Location/Type
07:56AM 32.8333 -96.8333 121° Southeast 173 199 1,500  Level Dallas / Fort Worth TRACON
07:57AM 32.8000 -96.7667 121° Southeast 225 259 4,900 2,400 Climbing Dallas / Fort Worth TRACON
07:58AM 32.7167 -96.7667 180° South 278 320 7,000 1,020 Climbing Dallas / Fort Worth TRACON
07:59AM 32.6833 -96.8333 239° Southwest 271 312 7,000 1,380 Level Dallas / Fort Worth TRACON
08:00AM 32.6667 -96.9167 257° West 272 313 9,800 2,580 Climbing Dallas / Fort Worth TRACON
08:02AM 32.7328 -97.0603 299° West 300 345 14,100 2,400 Climbing Fort Worth Center
08:03AM 32.7767 -97.1467 301° West 306 352 16,500 2,340 Climbing Fort Worth Center
08:04AM 32.8250 -97.2356 303° West 312 359 18,800 2,280 Climbing Fort Worth Center
08:05AM 32.8772 -97.3317 303° West 318 366 21,100 1,860 Climbing Fort Worth Center
08:06AM 32.9231 -97.4158 303° West 318 366 22,600 1,500 Climbing Fort Worth Center
08:07AM 32.9794 -97.5272 301° West 343 395 24,100 1,440 Climbing Fort Worth Center
08:08AM 33.0336 -97.6264 303° West 351 404 25,500 1,320 Climbing Fort Worth Center
08:09AM 33.0856 -97.7258 302° West 351 404 26,800 1,260 Climbing Fort Worth Center
08:10AM 33.1228 -97.8350 292° West 356 410 28,100 1,200 Climbing Fort Worth Center
08:11AM 33.1600 -97.9444 292° West 356 410 29,300 900 Climbing Fort Worth Center
08:12AM 33.1950 -98.0614 290° West 361 415 30,000 480 Climbing Fort Worth Center
08:13AM 33.2339 -98.1808 291° West 374 430 30,300 600 Climbing Fort Worth Center
08:14AM 33.2728 -98.3031 291° West 381 438 31,300 960 Climbing Fort Worth Center
08:15AM 33.3219 -98.4128 298° West 386 444 32,300 780 Climbing Fort Worth Center
08:16AM 33.3714 -98.5028 303° West 374 430 32,900 600 Climbing Fort Worth Center
08:17AM 33.4308 -98.6108 303° West 381 438 33,600 780 Climbing Fort Worth Center
08:18AM 33.4883 -98.7186 303° West 387 445 34,500 900 Climbing Fort Worth Center
08:19AM 33.5456 -98.8242 303° West 387 445 35,500 1,020 Climbing Fort Worth Center
08:20AM 33.6089 -98.9472 302° West 392 451 36,600 1,020 Climbing Fort Worth Center
08:21AM 33.6617 -99.0531 301° West 387 445 37,600 900 Climbing Fort Worth Center
08:22AM 33.7125 -99.1464 303° West 381 438 38,500 900 Climbing Fort Worth Center
08:23AM 33.7656 -99.2450 303° West 369 425 39,500 720 Climbing Fort Worth Center
08:24AM 33.8203 -99.3461 303° West 369 425 40,000 240 Climbing Fort Worth Center
08:25AM 33.8769 -99.4575 302° West 369 425 40,000  Level Fort Worth Center
08:26AM 33.9422 -99.5542 309° West 374 430 40,000  Level Fort Worth Center
08:27AM 34.0114 -99.6511 311° West 374 430 40,000  Level Fort Worth Center
08:28AM 34.0786 -99.7431 311° West 379 436 40,000  Level Fort Worth Center
08:29AM 34.1456 -99.8378 311° West 374 430 40,000  Level Fort Worth Center
08:30AM 34.2147 -99.9325 311° West 374 430 40,000  Level Fort Worth Center
08:31AM 34.2817 -100.0300 310° West 374 430 40,000  Level Fort Worth Center
08:32AM 34.3486 -100.1200 312° West 374 430 40,000  Level Fort Worth Center
08:32AM 34.4136 -100.2133 310° West 369 425 40,000  Level Albuquerque Center
08:34AM 34.4800 -100.3064 311° West 367 422 40,000  Level Albuquerque Center
08:35AM 34.5467 -100.3997 311° West 366 421 40,000  Level Albuquerque Center
08:36AM 34.6131 -100.4928 311° West 366 421 40,000  Level Albuquerque Center
08:37AM 34.6781 -100.5861 310° West 364 419 40,000  Level Albuquerque Center
08:38AM 34.7442 -100.6794 311° West 364 419 40,000  Level Albuquerque Center
08:39AM 34.8108 -100.7736 311° West 367 422 40,000  Level Albuquerque Center
08:40AM 34.8767 -100.8678 310° West 366 421 40,000  Level Albuquerque Center
08:41AM 34.9425 -100.9639 310° West 368 423 40,000  Level Albuquerque Center
08:42AM 35.0100 -101.0581 311° West 370 426 40,000  Level Albuquerque Center
08:43AM 35.0753 -101.1531 310° West 369 425 40,000  Level Albuquerque Center
08:44AM 35.1419 -101.2483 311° West 370 426 40,000  Level Albuquerque Center
08:45AM 35.2214 -101.3628 310° West 373 429 40,000  Level Albuquerque Center
08:46AM 35.2892 -101.4594 311° West 374 430 40,000  Level Albuquerque Center
08:47AM 35.3542 -101.5561 310° West 370 426 40,000  Level Albuquerque Center
08:48AM 35.4125 -101.6392 311° West 370 426 40,000  Level Albuquerque Center
08:49AM 35.4792 -101.7353 310° West 369 425 40,000  Level Albuquerque Center
08:50AM 35.5458 -101.8369 309° West 365 420 40,000  Level Albuquerque Center
08:51AM 35.6089 -101.9300 310° West 358 412 40,000  Level Albuquerque Center
08:52AM 35.6719 -102.0225 310° West 356 410 40,000  Level Albuquerque Center
08:53AM 35.7344 -102.1147 310° West 352 405 40,000  Level Albuquerque Center
08:54AM 35.7961 -102.2064 310° West 350 403 40,000  Level Albuquerque Center
08:55AM 35.8583 -102.2989 310° West 351 404 40,000  Level Albuquerque Center
08:56AM 35.9192 -102.3911 309° West 349 402 40,000  Level Albuquerque Center
08:57AM 35.9808 -102.4836 309° West 349 402 40,000  Level Albuquerque Center
08:58AM 36.0544 -102.5942 309° West 348 400 40,000  Level Albuquerque Center
08:59AM 36.1169 -102.6869 310° West 349 402 40,000  Level Albuquerque Center
09:00AM 36.1775 -102.7803 309° West 348 400 40,000  Level Albuquerque Center
09:01AM 36.2400 -102.8719 310° West 349 402 40,000  Level Albuquerque Center
09:02AM 36.3025 -102.9681 309° West 349 402 40,000  Level Albuquerque Center
09:03AM 36.3647 -103.0622 309° West 350 403 40,000  Level Albuquerque Center
09:04AM 36.4261 -103.1558 309° West 348 400 40,000  Level Albuquerque Center
09:05AM 36.4881 -103.2503 309° West 350 403 40,000  Level Albuquerque Center
09:06AM 36.5494 -103.3458 309° West 351 404 40,000  Level Albuquerque Center
09:07AM 36.6114 -103.4408 309° West 351 404 40,000  Level Albuquerque Center
09:08AM 36.6719 -103.5356 309° West 352 405 40,000  Level Albuquerque Center
09:09AM 36.7306 -103.6256 309° West 350 403 40,000  Level Albuquerque Center
09:10AM 36.7894 -103.7156 309° West 349 402 40,000  Level Albuquerque Center
09:11AM 36.8572 -103.8217 309° West 349 402 40,000  Level Albuquerque Center
09:12AM 36.9147 -103.9125 308° West 348 400 40,000  Level Albuquerque Center
09:13AM 36.9733 -104.0028 309° West 348 400 40,000  Level Albuquerque Center
09:14AM 37.0411 -104.1100 308° West 350 403 40,000  Level Albuquerque Center
09:15AM 37.0986 -104.2006 309° West 347 399 40,000  Level Albuquerque Center
09:16AM 37.1558 -104.2911 308° West 345 397 40,000 -360 Level Albuquerque Center
09:17AM 37.2247 -104.3989 309° West 350 403 39,300 -900 Descending Albuquerque Center
09:18AM 37.2869 -104.4964 309° West 365 420 38,300 -1,080 Descending Albuquerque Center
09:19AM 37.3500 -104.5983 308° West 379 436 37,200 -1,080 Descending Albuquerque Center
09:20AM 37.4256 -104.7178 309° West 387 445 36,000 -600 Descending Denver Center
09:21AM 37.4983 -104.8358 308° West 382 440 36,000  Level Denver Center
09:22AM 37.5597 -104.9347 308° West 374 430 36,000  Level Denver Center
09:23AM 37.6192 -105.0317 308° West 367 422 36,000  Level Denver Center
09:24AM 37.6900 -105.1433 309° West 364 419 36,000  Level Denver Center
09:25AM 37.7483 -105.2406 307° West 362 417 36,000  Level Denver Center
09:26AM 37.8183 -105.3528 308° West 364 419 36,000 -300 Level Denver Center
09:27AM 37.8772 -105.4481 308° West 360 414 35,400 -1,320 Descending Denver Center
09:28AM 37.9386 -105.5514 307° West 379 436 33,400 -2,160 Descending Denver Center
09:29AM 38.0144 -105.6753 308° West 395 455 31,100 -2,220 Descending Denver Center
09:30AM 38.0803 -105.7819 308° West 400 460 29,000 -1,860 Descending Denver Center
09:32AM 38.1661 -105.9242 308° West 397 457 27,000 -900 Descending Denver Center
09:33AM 38.2292 -106.0300 307° West 393 452 27,000 -300 Level Denver Center
09:34AM 38.2925 -106.1364 307° West 393 452 26,500 -960 Descending Denver Center
09:35AM 38.3656 -106.2564 308° West 399 459 25,100 -1,320 Descending Denver Center
09:36AM 38.4397 -106.3567 313° West 392 451 23,900 -1,200 Descending Denver Center
09:37AM 38.5431 -106.4111 338° Northwest 402 463 22,700 -1,200 Descending Denver Center
09:38AM 38.6472 -106.4650 338° Northwest 401 461 21,500 -1,080 Descending Denver Center
09:39AM 38.7492 -106.5183 338° Northwest 398 458 20,600 -1,020 Descending Denver Center
09:40AM 38.8442 -106.5694 337° Northwest 378 435 19,500 -1,320 Descending Denver Center
09:41AM 38.9358 -106.6200 337° Northwest 363 418 18,000 -1,380 Descending Denver Center
09:42AM 39.0294 -106.6706 337° Northwest 361 415 16,800 -660 Descending Denver Center
09:44AM 39.2300 -106.7803 337° Northwest 321 369 16,000 -360 Descending Denver Center
09:45AM 39.3119 -106.7700 North 310 357 15,700 -180 Descending Denver Center
09:46AM 39.3883 -106.7483 12° North 289 333 15,700 -600 Level Denver Center
09:47AM 39.4492 -106.7964 329° Northwest 271 312 14,500 -1,080 Descending Denver Center
09:48AM 39.4150 -106.8717 240° Southwest 252 290 13,600 -1,140 Descending Denver Center
09:49AM 39.3761 -106.9056 214° Southwest 218 251 12,200 -1,680 Descending Denver Center
09:50AM 39.3214 -106.9164 189° South 179 206 10,300 -1,800 Descending Denver Center
09:51AM 39.2817 -106.8983 161° South 162 186 8,600 -1,080 Descending Denver Center
09:52AM 39.2383 -106.8781 160° South 156 180 8,200 -420 Descending Denver Center